MST,Max TemperatureF,Mean TemperatureF,Min TemperatureF,Max Dew PointF,MeanDew PointF,Min DewpointF,Max Humidity, Mean Humidity, Min Humidity, Max Sea Level PressureIn, Mean Sea Level PressureIn, Min Sea Level PressureIn, Max VisibilityMiles, Mean VisibilityMiles, Min VisibilityMiles, Max Wind SpeedMPH, Mean Wind SpeedMPH, Max Gust SpeedMPH,PrecipitationIn, CloudCover, Events, WindDirDegrees
2012-11-1,64,44,24,18,14,9,62,37,12,30.17,30.06,29.99,10,10,4,21,4,29,0.00,0,,220
2012-11-2,60,45,30,27,21,17,69,46,23,30.18,30.04,29.96,10,9,4,20,4,24,0.00,1,,218
2012-11-3,61,44,26,29,23,20,81,53,25,30.25,30.15,30.07,10,10,10,13,1,16,0.00,1,,91
2012-11-4,64,44,24,22,17,14,81,49,16,30.37,30.26,30.19,10,10,10,14,3,22,0.00,0,,86
2012-11-5,65,47,29,22,19,15,59,39,18,30.30,30.23,30.17,10,10,4,17,6,23,0.00,0,,68
2012-11-6,69,47,25,26,21,18,75,46,17,30.32,30.23,30.16,10,9,5,10,2,14,0.00,0,,57
2012-11-7,67,47,27,27,20,18,69,43,16,30.25,30.11,29.98,10,10,10,17,4,24,0.00,0,,210
2012-11-8,60,44,27,41,30,18,93,59,24,30.03,29.94,29.80,10,10,6,30,12,41,0.15,4,Rain,218
2012-11-9,48,40,32,41,38,29,96,86,76,29.97,29.78,29.62,10,8,2,22,19,28,0.79,7,Rain-Snow,219
2012-11-10,35,25,15,28,17,6,92,63,33,30.01,29.85,29.64,10,7,0,30,11,37,0.06,5,Snow,241
2012-11-11,38,24,9,14,9,-1,92,57,22,30.40,30.24,30.02,10,10,10,12,3,21,0.00,0,,360
2012-11-12,42,31,19,11,5,2,67,44,20,30.45,30.36,30.29,10,10,10,17,6,21,0.00,0,,71
2012-11-13,50,32,14,52,11,5,80,48,16,30.41,30.33,30.25,10,10,10,16,3,22,0.00,0,,73
2012-11-14,56,36,15,22,12,6,80,47,14,30.38,30.27,30.19,10,10,10,13,2,15,0.00,0,,204
2012-11-15,52,36,19,24,18,11,77,50,22,30.32,30.24,30.15,10,10,10,12,2,14,0.00,2,,66
2012-11-16,57,45,32,29,22,17,70,46,22,30.19,30.12,30.05,10,10,10,18,5,24,0.00,3,,225
2012-11-17,54,40,26,34,28,19,81,63,44,30.22,30.10,30.01,10,10,10,25,9,35,0.00,2,,224
2012-11-18,52,39,26,36,30,24,92,70,48,30.24,30.13,30.02,10,10,10,18,5,28,0.00,1,,230
2012-11-19,55,39,22,33,21,13,100,60,19,30.39,30.28,30.19,10,10,9,14,3,17,0.00,0,,213
2012-11-20,62,41,20,25,20,16,84,52,20,30.39,30.26,30.13,10,10,10,8,2,,0.00,0,,90
2012-11-21,58,40,21,,,,,,,,,,,,,17,4,21,0.00,,,
2012-11-22,62,42,22,,,,,,,,,,,,,12,2,14,0.00,,,
2012-11-23,58,40,22,23,19,16,75,48,21,30.45,30.38,30.31,10,10,10,15,3,18,0.00,0,,74
2012-11-24,64,42,20,24,19,15,84,51,17,30.41,30.24,30.07,10,10,10,13,2,16,0.00,0,,103
2012-11-25,59,41,22,28,20,17,84,53,21,30.15,30.04,29.96,10,10,10,18,5,23,0.00,0,,222
2012-11-26,58,42,25,27,17,7,75,44,13,30.28,30.13,29.99,10,10,10,12,1,14,0.00,0,,90
2012-11-27,56,37,18,23,19,14,84,54,24,30.40,30.29,30.22,10,10,10,20,2,23,0.00,0,,226
2012-11-28,57,40,22,27,23,18,81,55,28,30.34,30.23,30.14,10,10,10,23,5,28,0.00,0,,225
2012-11-29,56,40,23,33,27,21,88,62,35,30.25,30.18,30.14,10,10,10,23,7,32,0.00,0,Rain,239
2012-11-30,55,42,28,36,31,27,100,69,38,30.26,30.15,30.07,10,10,8,17,6,21,0.00,2,,232